Time;durP1;ratioP1;P1;durP2;ratioP2;P2;SDS_P1;SDS_P2;PMS_P1;PMS_P2;Temp;Humidity;BMP_temperature;BMP_pressure;BME280_temperature;BME280_humidity;BME280_pressure;Samples;Min_cycle;Max_cycle;Signal;HPM_P1;HPM_P2
2024/04/07 00:02:18;;;;;;;1.93;1.70;;;;;;;14.73;65.38;96670.84;5110590;28;20544;-81
2024/04/07 00:04:45;;;;;;;1.83;1.50;;;;;;;14.65;66.04;96677.75;5094541;28;20210;-81
2024/04/07 00:07:10;;;;;;;2.93;1.60;;;;;;;14.42;67.85;96676.97;5101680;28;20232;-81
2024/04/07 00:09:38;;;;;;;1.90;1.70;;;;;;;13.95;69.67;96679.25;5110940;28;20239;-80
2024/04/07 00:12:08;;;;;;;2.40;2.20;;;;;;;13.63;71.59;96677.59;5102420;28;20208;-80
2024/04/07 00:14:36;;;;;;;2.47;1.60;;;;;;;13.57;72.56;96673.47;5098592;28;20315;-80
2024/04/07 00:17:02;;;;;;;2.13;1.83;;;;;;;13.73;72.79;96677.34;5097582;28;20253;-80
2024/04/07 00:19:29;;;;;;;2.00;1.83;;;;;;;13.95;72.79;96681.91;5092179;28;20201;-80
2024/04/07 00:21:55;;;;;;;3.27;2.00;;;;;;;13.92;72.57;96679.84;5098429;28;20245;-80
2024/04/07 00:24:23;;;;;;;2.83;2.00;;;;;;;14.10;73.96;96683.44;5111194;28;20195;-80
2024/04/07 00:26:50;;;;;;;2.50;1.70;;;;;;;14.11;73.75;96676.97;5099684;28;20199;-80
2024/04/07 00:29:18;;;;;;;4.73;2.33;;;;;;;14.37;73.50;96658.38;5097305;28;20228;-80
2024/04/07 00:31:44;;;;;;;3.60;1.90;;;;;;;14.25;73.38;96650.09;5101018;28;20689;-80
2024/04/07 00:34:10;;;;;;;2.37;2.17;;;;;;;14.32;72.24;96671.88;5090169;28;20213;-80
2024/04/07 00:36:37;;;;;;;3.93;2.37;;;;;;;14.36;72.04;96670.16;5101148;28;20197;-80
2024/04/07 00:39:03;;;;;;;4.20;2.30;;;;;;;14.28;72.15;96669.03;5111780;28;20204;-79
2024/04/07 00:41:29;;;;;;;3.47;2.03;;;;;;;13.82;73.73;96672.06;5094634;28;20610;-79
2024/04/07 00:43:56;;;;;;;3.37;1.60;;;;;;;13.86;74.45;96670.34;5094290;28;20212;-79
2024/04/07 00:46:23;;;;;;;3.87;2.07;;;;;;;13.80;75.61;96680.41;5097553;28;20189;-79
2024/04/07 00:48:50;;;;;;;2.00;1.90;;;;;;;13.79;75.08;96662.00;5114885;28;20208;-79
2024/04/07 00:51:17;;;;;;;2.53;2.03;;;;;;;13.95;74.73;96685.38;5113588;28;20583;-79
2024/04/07 00:53:44;;;;;;;3.07;2.30;;;;;;;13.83;75.24;96687.03;5105836;28;20327;-79
2024/04/07 00:56:09;;;;;;;2.30;2.10;;;;;;;13.69;75.92;96695.09;5113942;28;20665;-79
2024/04/07 00:58:37;;;;;;;1.80;1.70;;;;;;;13.84;75.32;96683.25;5103156;28;20205;-79
2024/04/07 01:01:04;;;;;;;3.63;2.13;;;;;;;13.77;76.01;96675.66;5093634;28;20222;-79
2024/04/07 01:03:32;;;;;;;3.80;2.10;;;;;;;13.80;77.33;96661.66;5094161;28;20259;-78
2024/04/07 01:05:58;;;;;;;7.17;2.50;;;;;;;13.93;77.00;96671.50;5093177;28;20195;-78
2024/04/07 01:08:25;;;;;;;2.63;2.03;;;;;;;13.89;76.65;96659.03;5111863;28;20199;-79
2024/04/07 01:10:52;;;;;;;5.40;2.37;;;;;;;14.00;76.15;96654.25;5104611;28;20213;-79
2024/04/07 01:13:24;;;;;;;2.20;2.00;;;;;;;14.12;75.33;96663.28;5093465;28;20305;-79
2024/04/07 01:15:50;;;;;;;5.03;2.30;;;;;;;13.80;75.36;96656.31;5094284;28;20196;-79
2024/04/07 01:18:17;;;;;;;4.13;2.27;;;;;;;13.83;76.39;96658.41;5092952;28;20619;-79
2024/04/07 01:20:44;;;;;;;2.40;1.83;;;;;;;13.79;76.65;96652.06;5106912;28;20274;-79
2024/04/07 01:23:16;;;;;;;1.90;1.80;;;;;;;13.65;76.26;96656.69;5113175;28;20663;-79
2024/04/07 01:25:42;;;;;;;4.43;2.20;;;;;;;13.81;75.34;96652.53;5112501;28;20256;-79
2024/04/07 01:28:09;;;;;;;2.50;2.27;;;;;;;13.66;75.73;96648.34;5100760;28;20598;-79
2024/04/07 01:30:36;;;;;;;2.10;2.00;;;;;;;12.84;79.14;96625.28;5103513;28;20218;-78
2024/04/07 01:33:03;;;;;;;4.80;2.30;;;;;;;13.05;79.51;96646.22;5093289;28;20681;-78
2024/04/07 01:35:29;;;;;;;2.00;1.90;;;;;;;13.12;79.01;96639.38;5093340;28;20275;-79
2024/04/07 01:37:56;;;;;;;2.43;2.27;;;;;;;13.51;78.46;96651.38;5095283;28;20277;-79
2024/04/07 01:40:23;;;;;;;4.60;2.80;;;;;;;13.61;78.71;96653.03;5099165;28;20644;-79
2024/04/07 01:42:51;;;;;;;2.13;1.97;;;;;;;13.64;78.25;96650.56;5109977;28;20716;-79
2024/04/07 01:45:19;;;;;;;2.60;2.17;;;;;;;13.81;77.77;96641.84;5106154;28;20278;-79
2024/04/07 01:47:46;;;;;;;2.03;1.87;;;;;;;14.00;76.41;96632.84;5096909;28;20238;-79
2024/04/07 01:50:12;;;;;;;6.20;2.30;;;;;;;13.92;76.73;96629.78;5092656;28;20207;-79
2024/04/07 01:52:38;;;;;;;3.20;1.63;;;;;;;13.92;76.83;96620.97;5097576;28;20198;-79
2024/04/07 01:55:05;;;;;;;1.53;1.43;;;;;;;13.75;76.12;96581.56;5092355;28;20240;-79
2024/04/07 01:57:33;;;;;;;1.37;1.30;;;;;;;13.91;76.26;96614.84;5098022;28;20198;-79
2024/04/07 01:59:58;;;;;;;1.57;1.47;;;;;;;13.58;76.54;96598.25;5113253;28;20227;-79
2024/04/07 02:02:25;;;;;;;3.17;2.40;;;;;;;13.01;79.81;96591.81;5111893;28;20212;-79
2024/04/07 02:04:51;;;;;;;2.70;2.30;;;;;;;13.34;78.08;96582.53;5105537;28;20201;-79
2024/04/07 02:07:18;;;;;;;4.10;2.43;;;;;;;13.66;77.16;96586.81;5104115;28;20252;-79
2024/04/07 02:09:46;;;;;;;2.20;2.00;;;;;;;13.66;77.72;96602.09;5106610;28;20192;-79
2024/04/07 02:12:13;;;;;;;2.80;2.60;;;;;;;13.52;78.80;96606.72;5105267;28;20191;-79
2024/04/07 02:14:40;;;;;;;1.77;1.60;;;;;;;13.59;78.92;96612.41;5095137;28;20596;-79
2024/04/07 02:17:07;;;;;;;3.30;1.80;;;;;;;13.61;78.12;96604.91;5091872;28;20204;-79
2024/04/07 02:19:33;;;;;;;1.23;1.13;;;;;;;13.76;77.43;96598.38;5110197;28;20210;-79
2024/04/07 02:22:00;;;;;;;1.07;0.97;;;;;;;13.87;76.55;96602.38;5108009;28;20663;-79
2024/04/07 02:24:26;;;;;;;1.30;1.20;;;;;;;13.92;75.77;96608.38;5091826;28;20671;-79
2024/04/07 02:26:52;;;;;;;1.00;1.00;;;;;;;14.06;75.56;96607.53;5092569;28;20200;-79
2024/04/07 02:29:18;;;;;;;1.30;1.20;;;;;;;13.89;75.53;96603.66;5092303;28;20209;-79
2024/04/07 02:31:46;;;;;;;1.00;1.00;;;;;;;13.62;76.59;96606.47;5092277;28;20728;-78
2024/04/07 02:34:13;;;;;;;2.03;1.10;;;;;;;13.56;77.67;96597.00;5091458;28;20220;-79
2024/04/07 02:36:40;;;;;;;2.33;1.80;;;;;;;13.48;77.96;96601.19;5091513;28;20665;-79
2024/04/07 02:39:09;;;;;;;1.97;1.70;;;;;;;13.60;77.95;96606.78;5092136;28;20615;-79
2024/04/07 02:41:36;;;;;;;2.20;1.87;;;;;;;13.51;77.91;96607.81;5099377;28;20246;-79
2024/04/07 02:44:03;;;;;;;1.90;1.50;;;;;;;13.49;78.23;96602.78;5092194;28;20207;-80
2024/04/07 02:49:15;;;;;;;0.80;0.80;;;;;;;13.64;74.79;96605.09;5091628;28;20196;-79
2024/04/07 02:51:42;;;;;;;0.80;0.80;;;;;;;13.54;74.99;96591.16;5091212;28;20262;-80
2024/04/07 02:54:10;;;;;;;1.00;1.00;;;;;;;13.50;75.54;96598.22;5091848;28;20225;-79
2024/04/07 02:56:35;;;;;;;1.20;1.10;;;;;;;13.39;75.65;96590.41;5091371;28;20205;-80
2024/04/07 02:59:03;;;;;;;2.90;2.40;;;;;;;13.15;77.62;96605.94;5091246;28;20205;-80
2024/04/07 03:01:30;;;;;;;2.37;1.30;;;;;;;13.25;77.69;96589.72;5099276;28;20221;-80
2024/04/07 03:03:56;;;;;;;2.30;1.23;;;;;;;13.15;77.36;96592.56;5091437;28;20200;-80
2024/04/07 03:06:24;;;;;;;0.80;0.80;;;;;;;13.29;77.08;96598.69;5091452;28;20262;-80
2024/04/07 03:08:51;;;;;;;1.10;1.00;;;;;;;13.24;76.43;96601.47;5100389;28;20192;-79
2024/04/07 03:11:18;;;;;;;1.37;1.20;;;;;;;13.28;76.29;96597.13;5106681;28;20192;-79
2024/04/07 03:13:43;;;;;;;0.97;0.97;;;;;;;13.26;76.49;96601.19;5101134;28;20229;-79
2024/04/07 03:16:13;;;;;;;1.10;1.10;;;;;;;13.10;76.05;96601.50;5100765;28;20572;-80
2024/04/07 03:18:39;;;;;;;3.10;0.93;;;;;;;13.19;76.05;96604.25;5091053;28;20659;-80
2024/04/07 03:21:06;;;;;;;1.63;1.20;;;;;;;13.12;75.87;96615.34;5091512;28;20197;-80
2024/04/07 03:23:33;;;;;;;1.00;1.00;;;;;;;13.17;75.64;96612.56;5098972;28;20208;-80
2024/04/07 03:26:00;;;;;;;0.80;0.80;;;;;;;13.10;75.14;96612.19;5094229;28;20284;-80
2024/04/07 03:28:26;;;;;;;1.03;1.03;;;;;;;13.10;75.24;96616.75;5099436;28;20568;-80
2024/04/07 03:30:53;;;;;;;1.50;0.80;;;;;;;13.13;75.27;96610.81;5106707;28;20188;-79
2024/04/07 03:33:19;;;;;;;1.67;1.07;;;;;;;13.00;75.54;96611.63;5099928;28;20717;-80
2024/04/07 03:35:46;;;;;;;1.00;1.00;;;;;;;12.95;76.46;96615.97;5096131;28;20203;-79
2024/04/07 03:38:12;;;;;;;2.50;0.87;;;;;;;12.93;76.32;96617.34;5109378;28;20244;-80
2024/04/07 03:40:42;;;;;;;1.60;1.00;;;;;;;12.91;76.18;96614.22;5099336;28;20204;-80
2024/04/07 03:43:09;;;;;;;1.40;0.93;;;;;;;12.92;76.52;96623.78;5090463;28;20192;-80
2024/04/07 03:45:35;;;;;;;0.93;0.83;;;;;;;12.92;75.01;96618.47;5090450;28;20672;-81
2024/04/07 03:48:02;;;;;;;0.70;0.70;;;;;;;12.88;74.64;96620.16;5091644;28;20559;-80
2024/04/07 03:50:28;;;;;;;1.27;0.80;;;;;;;12.72;75.08;96625.00;5090436;28;20262;-80
2024/04/07 03:52:54;;;;;;;1.37;1.27;;;;;;;12.72;75.63;96636.50;5107646;28;20263;-80
2024/04/07 03:55:21;;;;;;;1.70;0.80;;;;;;;12.88;74.92;96631.63;5090655;28;20224;-80
2024/04/07 03:57:48;;;;;;;0.83;0.83;;;;;;;12.85;74.62;96637.56;5091832;28;20254;-80
2024/04/07 04:00:15;;;;;;;0.73;0.73;;;;;;;12.81;75.17;96635.78;5091048;28;20223;-80
2024/04/07 04:02:41;;;;;;;0.90;0.90;;;;;;;12.91;74.50;96632.91;5090632;28;20682;-79
2024/04/07 04:05:08;;;;;;;1.00;0.90;;;;;;;12.78;75.13;96631.84;5090480;28;20189;-81
2024/04/07 04:07:33;;;;;;;0.80;0.80;;;;;;;12.90;74.70;96660.72;5103650;28;20206;-80
2024/04/07 04:10:01;;;;;;;0.67;0.67;;;;;;;13.05;73.85;96643.56;5110460;28;20192;-80
2024/04/07 04:12:29;;;;;;;0.80;0.80;;;;;;;13.04;73.00;96642.78;5112549;28;20253;-80
2024/04/07 04:14:57;;;;;;;1.70;0.80;;;;;;;13.11;72.49;96650.38;5115128;28;20314;-80
2024/04/07 04:17:24;;;;;;;2.30;0.77;;;;;;;13.12;71.93;96651.97;5096781;28;20625;-80
2024/04/07 04:19:50;;;;;;;0.80;0.80;;;;;;;13.26;71.39;96657.31;5094825;28;20278;-80
2024/04/07 04:22:17;;;;;;;0.80;0.80;;;;;;;12.83;70.86;96605.03;5101186;28;20200;-80
2024/04/07 04:24:43;;;;;;;0.80;0.80;;;;;;;13.24;70.68;96665.63;5113388;28;20200;-80
2024/04/07 04:27:10;;;;;;;0.80;0.80;;;;;;;13.09;71.00;96649.91;5110758;28;20195;-80
2024/04/07 04:29:36;;;;;;;0.80;0.80;;;;;;;13.39;70.94;96675.19;5103633;28;20196;-79
2024/04/07 04:32:05;;;;;;;0.97;0.90;;;;;;;13.02;71.35;96633.50;5095873;28;20201;-80
2024/04/07 04:34:32;;;;;;;1.00;1.00;;;;;;;13.15;71.51;96664.72;5114856;28;20223;-80
2024/04/07 04:36:59;;;;;;;1.00;1.00;;;;;;;13.16;70.52;96647.59;5095941;28;20730;-80
2024/04/07 04:39:25;;;;;;;0.87;0.80;;;;;;;12.98;71.17;96627.97;5094783;28;20209;-80
2024/04/07 04:41:52;;;;;;;1.13;1.00;;;;;;;13.24;71.40;96675.53;5094234;28;20663;-80
2024/04/07 04:44:18;;;;;;;0.90;0.90;;;;;;;13.13;71.19;96673.06;5102851;28;20192;-79
2024/04/07 04:46:47;;;;;;;1.10;1.00;;;;;;;13.08;71.63;96683.03;5097226;28;20191;-79
2024/04/07 04:49:14;;;;;;;1.50;1.40;;;;;;;13.12;71.83;96684.03;5107650;28;20188;-79
2024/04/07 04:51:41;;;;;;;1.37;0.90;;;;;;;12.92;73.49;96671.88;5093857;28;20235;-79
2024/04/07 04:54:07;;;;;;;1.00;1.00;;;;;;;13.00;74.04;96681.88;5094316;28;20216;-79
2024/04/07 04:56:35;;;;;;;1.10;1.00;;;;;;;13.07;73.74;96684.94;5101331;28;20265;-80
2024/04/07 04:59:02;;;;;;;0.83;0.83;;;;;;;13.06;73.11;96682.56;5105779;28;20719;-79
2024/04/07 05:01:30;;;;;;;0.90;0.90;;;;;;;13.16;71.98;96693.84;5108182;28;20682;-80
2024/04/07 05:03:56;;;;;;;0.90;0.90;;;;;;;13.25;70.97;96693.94;5102584;28;20250;-80
2024/04/07 05:06:24;;;;;;;0.80;0.80;;;;;;;12.95;72.19;96666.75;5093571;28;20192;-80
2024/04/07 05:08:50;;;;;;;1.17;1.07;;;;;;;12.92;71.90;96662.00;5093782;28;20249;-79
2024/04/07 05:11:18;;;;;;;2.50;1.10;;;;;;;13.01;71.76;96699.50;5110595;28;20196;-80
2024/04/07 05:13:43;;;;;;;1.00;1.00;;;;;;;13.24;71.71;96703.03;5113784;28;20256;-80
2024/04/07 05:16:10;;;;;;;1.43;1.20;;;;;;;13.17;72.25;96698.09;5114310;28;20192;-77
2024/04/07 05:18:36;;;;;;;1.43;1.33;;;;;;;13.25;71.66;96698.50;5110961;28;20572;-80
2024/04/07 05:21:04;;;;;;;1.70;0.90;;;;;;;13.17;72.15;96690.06;5108321;28;20202;-80
2024/04/07 05:23:32;;;;;;;1.87;1.73;;;;;;;13.37;71.65;96712.16;5099648;28;20215;-79
2024/04/07 05:26:08;;;;;;;1.07;1.00;;;;;;;13.44;70.47;96715.19;5112850;28;20291;-79
2024/04/07 05:28:34;;;;;;;1.03;1.03;;;;;;;13.52;70.10;96716.38;5101283;28;20741;-80
2024/04/07 05:31:04;;;;;;;0.90;0.90;;;;;;;13.65;69.23;96708.28;5111121;28;20279;-79
2024/04/07 05:33:31;;;;;;;1.30;1.20;;;;;;;13.78;70.83;96719.25;5099894;28;20202;-79
2024/04/07 05:35:57;;;;;;;1.07;0.97;;;;;;;13.72;72.14;96717.78;5112774;28;20223;-79
2024/04/07 05:38:24;;;;;;;2.00;1.10;;;;;;;13.91;72.24;96721.88;5108259;28;20198;-79
2024/04/07 05:40:59;;;;;;;0.97;0.97;;;;;;;13.99;71.87;96720.34;5101949;28;20206;-79
2024/04/07 05:43:25;;;;;;;0.80;0.80;;;;;;;13.94;72.53;96720.50;5100705;28;20815;-79
2024/04/07 05:45:52;;;;;;;1.50;1.10;;;;;;;14.00;71.45;96727.28;5097906;28;20254;-79
2024/04/07 05:48:20;;;;;;;1.67;1.43;;;;;;;14.32;71.11;96715.50;5112860;28;20204;-79
2024/04/07 05:50:47;;;;;;;1.10;1.10;;;;;;;14.50;71.02;96721.00;5098225;28;20296;-79
2024/04/07 05:53:13;;;;;;;1.47;1.03;;;;;;;14.56;71.05;96704.50;5112700;28;20193;-79
2024/04/07 05:55:40;;;;;;;1.80;1.20;;;;;;;14.58;71.22;96728.28;5101858;28;20226;-79
2024/04/07 05:58:08;;;;;;;1.20;1.17;;;;;;;14.61;70.37;96733.03;5106134;28;20203;-80
2024/04/07 06:00:35;;;;;;;2.13;1.27;;;;;;;14.74;69.47;96731.34;5093884;28;20694;-80
2024/04/07 06:03:04;;;;;;;1.00;1.00;;;;;;;14.83;69.25;96727.63;5104888;28;20751;-78
2024/04/07 06:05:32;;;;;;;1.27;1.17;;;;;;;14.84;67.99;96728.41;5105394;28;20197;-79
2024/04/07 06:07:58;;;;;;;0.80;0.80;;;;;;;14.75;67.74;96723.03;5095938;28;20205;-79
2024/04/07 06:10:25;;;;;;;1.23;1.00;;;;;;;14.73;68.55;96733.25;5107029;28;20198;-79
2024/04/07 06:12:51;;;;;;;1.57;1.00;;;;;;;14.78;67.37;96733.09;5105958;28;20674;-78
2024/04/07 06:15:19;;;;;;;1.03;1.03;;;;;;;15.08;66.92;96744.09;5091675;28;20236;-78
2024/04/07 06:17:46;;;;;;;1.33;1.03;;;;;;;15.15;65.39;96745.22;5092033;28;20198;-78
2024/04/07 06:20:13;;;;;;;1.37;1.00;;;;;;;15.20;65.67;96755.00;5102636;28;20196;-78
2024/04/07 06:22:38;;;;;;;1.13;1.10;;;;;;;15.38;64.73;96745.13;5099363;28;20197;-77
2024/04/07 06:25:06;;;;;;;1.10;1.00;;;;;;;15.32;64.59;96746.34;5092264;28;20204;-77
2024/04/07 06:27:35;;;;;;;1.40;1.30;;;;;;;15.51;63.76;96740.72;5111093;28;20210;-77
2024/04/07 06:30:02;;;;;;;1.53;1.20;;;;;;;15.65;64.39;96741.41;5098655;28;20194;-77
2024/04/07 06:32:31;;;;;;;2.00;1.37;;;;;;;15.60;64.76;96755.75;5091902;28;20195;-77
2024/04/07 06:34:57;;;;;;;1.50;1.20;;;;;;;15.54;64.23;96748.16;5091602;28;20223;-77
2024/04/07 06:37:24;;;;;;;2.77;1.20;;;;;;;15.60;63.78;96752.25;5093206;28;20195;-77
2024/04/07 06:39:51;;;;;;;2.77;1.93;;;;;;;15.79;63.28;96750.06;5104901;28;20201;-77
2024/04/07 06:42:27;;;;;;;1.30;1.20;;;;;;;15.96;63.28;96748.53;5096210;28;20197;-77
2024/04/07 06:44:53;;;;;;;1.30;1.20;;;;;;;15.89;62.48;96749.78;5099163;28;20198;-77
2024/04/07 06:47:20;;;;;;;1.60;1.50;;;;;;;16.21;62.94;96758.44;5095095;28;20192;-77
2024/04/07 06:49:49;;;;;;;1.50;1.40;;;;;;;16.56;61.45;96771.81;5110644;28;20703;-77
2024/04/07 06:52:16;;;;;;;2.57;1.40;;;;;;;16.33;61.18;96769.31;5109999;28;20192;-77
2024/04/07 06:54:43;;;;;;;1.97;1.53;;;;;;;16.47;59.28;96760.31;5093557;28;20275;-77
2024/04/07 06:57:10;;;;;;;1.37;1.30;;;;;;;16.55;59.39;96757.59;5111423;28;20334;-77
2024/04/07 06:59:37;;;;;;;2.10;1.53;;;;;;;16.76;58.95;96763.09;5110903;28;20202;-77
2024/04/07 07:02:04;;;;;;;1.23;1.10;;;;;;;16.71;57.73;96747.09;5097063;28;20243;-77
2024/04/07 07:04:34;;;;;;;1.97;1.50;;;;;;;16.92;56.75;96759.88;5101334;28;20712;-77
2024/04/07 07:07:02;;;;;;;1.43;1.30;;;;;;;17.18;54.60;96730.19;5095933;28;20198;-77
2024/04/07 07:09:28;;;;;;;1.47;1.30;;;;;;;17.45;54.32;96774.66;5095493;28;20207;-77
2024/04/07 07:11:56;;;;;;;1.37;1.27;;;;;;;17.63;54.33;96776.13;5091290;28;20223;-77
2024/04/07 07:14:22;;;;;;;2.53;1.20;;;;;;;17.76;50.60;96723.97;5091503;28;20247;-77
2024/04/07 07:16:48;;;;;;;2.00;1.40;;;;;;;18.25;52.44;96788.06;5091166;28;20304;-77
2024/04/07 07:19:14;;;;;;;1.83;1.70;;;;;;;17.93;52.47;96793.06;5095047;28;20248;-77
2024/04/07 07:21:41;;;;;;;1.20;1.03;;;;;;;17.73;52.28;96796.47;5104228;28;20196;-77
2024/04/07 07:24:08;;;;;;;1.63;1.53;;;;;;;17.64;52.25;96799.25;5107298;28;20199;-77
2024/04/07 07:26:35;;;;;;;2.43;1.13;;;;;;;18.08;51.62;96791.66;5101513;28;20253;-77
2024/04/07 07:29:03;;;;;;;1.67;1.20;;;;;;;17.96;50.95;96802.38;5109435;28;20195;-77
2024/04/07 07:31:29;;;;;;;1.07;0.97;;;;;;;17.24;52.75;96783.47;5101451;28;20553;-77
2024/04/07 07:33:56;;;;;;;1.00;1.00;;;;;;;18.00;51.41;96803.28;5098150;28;20204;-76
2024/04/07 07:36:21;;;;;;;1.33;1.23;;;;;;;18.48;49.61;96794.66;5090320;28;20224;-77
2024/04/07 07:38:48;;;;;;;2.93;1.03;;;;;;;18.58;48.91;96788.84;5098870;28;20197;-77
2024/04/07 07:41:18;;;;;;;1.60;1.00;;;;;;;19.04;49.26;96802.34;5096679;28;20191;-77
2024/04/07 07:43:44;;;;;;;2.37;1.20;;;;;;;19.44;47.46;96799.78;5110118;28;20203;-77
2024/04/07 07:46:10;;;;;;;1.20;1.10;;;;;;;18.80;48.65;96793.06;5102729;28;20200;-77
2024/04/07 07:48:39;;;;;;;1.30;1.20;;;;;;;19.49;47.87;96793.38;5100129;28;20215;-77
2024/04/07 07:51:07;;;;;;;0.83;0.83;;;;;;;19.91;46.71;96796.59;5104841;28;20683;-77
2024/04/07 07:53:34;;;;;;;1.43;1.10;;;;;;;20.28;44.93;96802.66;5106547;28;20225;-77
2024/04/07 07:56:00;;;;;;;1.57;1.27;;;;;;;19.53;44.42;96768.03;5104001;28;20219;-77
2024/04/07 07:58:28;;;;;;;2.17;1.97;;;;;;;19.35;44.86;96790.22;5114910;28;20210;-76
2024/04/07 08:00:54;;;;;;;1.47;1.20;;;;;;;19.34;44.08;96791.34;5115289;28;20215;-76
2024/04/07 08:03:21;;;;;;;1.53;1.43;;;;;;;20.24;42.94;96796.38;5114954;28;20748;-76
2024/04/07 08:05:47;;;;;;;2.37;1.60;;;;;;;21.17;42.09;96796.13;5095473;28;20218;-76
2024/04/07 08:08:14;;;;;;;1.53;1.27;;;;;;;21.08;41.73;96794.75;5095128;28;20612;-76
2024/04/07 08:10:39;;;;;;;1.23;1.13;;;;;;;21.18;41.68;96799.63;5094460;28;20264;-77
2024/04/07 08:13:06;;;;;;;1.30;1.20;;;;;;;21.67;37.93;96807.41;5109990;28;20195;-77
2024/04/07 08:15:35;;;;;;;2.40;1.40;;;;;;;20.30;41.46;96804.28;5100965;28;20718;-77
2024/04/07 08:18:02;;;;;;;2.87;1.30;;;;;;;20.45;41.62;96808.94;5094530;28;21854;-76
2024/04/07 08:20:29;;;;;;;1.10;1.07;;;;;;;20.03;42.42;96803.91;5094455;28;20200;-76
2024/04/07 08:22:56;;;;;;;3.07;1.30;;;;;;;18.77;44.74;96804.53;5111655;28;20195;-77
2024/04/07 08:25:23;;;;;;;2.43;1.40;;;;;;;19.23;44.92;96802.56;5094255;28;20203;-77
2024/04/07 08:27:50;;;;;;;2.80;1.33;;;;;;;19.28;43.30;96801.56;5100997;28;20195;-77
2024/04/07 08:30:16;;;;;;;1.17;1.17;;;;;;;19.93;43.32;96817.88;5113842;28;20199;-77
2024/04/07 08:32:44;;;;;;;1.80;1.70;;;;;;;20.72;40.26;96810.88;5094598;28;20196;-77
2024/04/07 08:35:10;;;;;;;2.80;1.30;;;;;;;20.85;39.46;96800.75;5094587;28;20270;-77
2024/04/07 08:37:38;;;;;;;1.30;1.20;;;;;;;21.03;38.74;96813.97;5112789;28;20195;-77
2024/04/07 08:40:05;;;;;;;1.63;1.53;;;;;;;21.20;39.28;96816.31;5094435;28;20231;-76
2024/04/07 08:42:33;;;;;;;1.50;1.20;;;;;;;19.67;41.53;96816.34;5093469;28;20204;-77
2024/04/07 08:45:01;;;;;;;2.70;1.87;;;;;;;19.99;41.93;96811.88;5093758;28;20201;-76
2024/04/07 08:47:29;;;;;;;1.50;1.40;;;;;;;19.49;41.85;96813.06;5094513;28;20207;-76
2024/04/07 08:49:57;;;;;;;1.40;1.30;;;;;;;20.54;40.78;96809.59;5094155;28;20200;-77
2024/04/07 08:52:23;;;;;;;1.70;1.43;;;;;;;19.69;40.26;96802.50;5107681;28;20274;-76
2024/04/07 08:54:50;;;;;;;2.37;1.70;;;;;;;19.73;40.33;96801.47;5104753;28;20225;-76
2024/04/07 08:57:17;;;;;;;1.60;1.30;;;;;;;21.38;37.74;96806.75;5110899;28;20199;-77
2024/04/07 08:59:51;;;;;;;4.43;1.50;;;;;;;21.62;36.67;96800.34;5092811;28;20197;-76
2024/04/07 09:02:17;;;;;;;2.13;1.30;;;;;;;22.09;35.75;96804.84;5110766;28;20210;-76
2024/04/07 09:04:44;;;;;;;1.60;1.50;;;;;;;22.31;35.65;96813.44;5093892;28;20207;-76
2024/04/07 09:07:11;;;;;;;4.83;1.50;;;;;;;21.01;36.86;96806.19;5097275;28;20684;-76
2024/04/07 09:09:39;;;;;;;1.63;1.33;;;;;;;21.12;37.53;96809.94;5113747;28;20661;-76
2024/04/07 09:12:07;;;;;;;1.60;1.43;;;;;;;22.45;35.68;96816.44;5103303;28;20219;-76
2024/04/07 09:14:35;;;;;;;2.40;1.53;;;;;;;22.69;34.42;96805.28;5106965;28;20207;-76
2024/04/07 09:17:04;;;;;;;2.03;1.17;;;;;;;22.21;34.47;96812.84;5105620;28;20290;-76
2024/04/07 09:19:32;;;;;;;6.50;1.53;;;;;;;20.90;37.17;96786.97;5096733;28;20205;-76
2024/04/07 09:21:58;;;;;;;1.47;1.37;;;;;;;21.64;36.09;96817.00;5095991;28;20201;-76
2024/04/07 09:24:27;;;;;;;1.83;1.40;;;;;;;21.53;35.48;96810.59;5107609;28;20283;-76
2024/04/07 09:26:53;;;;;;;1.87;1.40;;;;;;;21.90;35.31;96813.72;5102344;28;20191;-76
2024/04/07 09:29:20;;;;;;;1.83;1.60;;;;;;;22.51;34.77;96806.09;5108266;28;20207;-76
2024/04/07 09:31:48;;;;;;;1.67;1.40;;;;;;;22.54;33.69;96816.22;5093211;28;20200;-78
2024/04/07 09:34:15;;;;;;;1.77;1.30;;;;;;;22.98;32.08;96802.31;5106788;28;20246;-76
2024/04/07 09:36:42;;;;;;;1.27;1.10;;;;;;;22.70;33.75;96784.38;5107765;28;20227;-76
2024/04/07 09:39:09;;;;;;;1.53;1.30;;;;;;;22.65;32.81;96803.63;5095528;28;20207;-76
2024/04/07 09:41:36;;;;;;;1.70;1.33;;;;;;;23.26;33.45;96810.94;5093016;28;20200;-76
2024/04/07 09:44:07;;;;;;;1.80;1.30;;;;;;;24.18;29.88;96810.75;5092762;28;20208;-76
2024/04/07 09:46:37;;;;;;;2.10;1.43;;;;;;;22.43;31.68;96818.72;5101769;28;20209;-76
2024/04/07 09:49:08;;;;;;;1.87;1.77;;;;;;;22.68;31.57;96819.97;5113660;28;20264;-75
2024/04/07 09:51:40;;;;;;;3.27;1.40;;;;;;;21.33;34.26;96817.03;5094392;28;20200;-76
2024/04/07 09:54:15;;;;;;;2.13;1.30;;;;;;;21.09;35.63;96821.47;5092306;28;20219;-76
2024/04/07 09:56:44;;;;;;;4.00;1.30;;;;;;;22.26;33.79;96819.91;5092090;28;20226;-76
2024/04/07 09:59:11;;;;;;;1.53;1.20;;;;;;;23.11;34.08;96811.84;5104694;28;20199;-76
2024/04/07 10:01:37;;;;;;;3.40;1.47;;;;;;;22.00;32.33;96817.03;5097263;28;20224;-76
2024/04/07 10:04:05;;;;;;;1.80;1.50;;;;;;;20.60;36.52;96808.22;5101214;28;20200;-76
2024/04/07 10:06:31;;;;;;;2.70;1.40;;;;;;;20.68;37.16;96811.91;5101209;28;20743;-75
2024/04/07 10:08:59;;;;;;;1.50;1.17;;;;;;;21.14;35.72;96815.00;5104767;28;20254;-76
2024/04/07 10:11:25;;;;;;;1.60;1.40;;;;;;;21.39;35.07;96826.47;5097371;28;20215;-76
2024/04/07 10:13:53;;;;;;;1.40;1.27;;;;;;;21.96;33.30;96808.81;5092676;28;20683;-75
2024/04/07 10:16:19;;;;;;;1.57;1.43;;;;;;;21.73;34.91;96809.50;5091739;28;20230;-75
2024/04/07 10:18:48;;;;;;;3.27;1.50;;;;;;;22.05;32.45;96803.19;5092287;28;20211;-76
2024/04/07 10:21:15;;;;;;;1.07;1.03;;;;;;;22.36;33.28;96805.81;5098558;28;20215;-75
2024/04/07 10:23:43;;;;;;;1.13;1.10;;;;;;;22.41;33.58;96785.75;5102023;28;20208;-76
2024/04/07 10:26:09;;;;;;;2.47;1.47;;;;;;;22.50;33.48;96791.75;5105637;28;20192;-75
2024/04/07 10:28:46;;;;;;;3.63;1.30;;;;;;;23.28;30.92;96778.78;5112503;28;20227;-75
2024/04/07 10:31:21;;;;;;;2.53;1.13;;;;;;;23.65;29.60;96797.19;5108894;28;20373;-75
2024/04/07 10:33:49;;;;;;;1.17;1.10;;;;;;;22.88;29.92;96799.03;5109198;28;20316;-76
2024/04/07 10:36:16;;;;;;;1.60;1.20;;;;;;;21.71;33.02;96800.13;5101758;28;20223;-76
2024/04/07 10:38:44;;;;;;;1.30;1.13;;;;;;;20.90;33.40;96795.06;5091850;28;20188;-76
2024/04/07 10:41:16;;;;;;;1.97;1.20;;;;;;;20.83;35.06;96786.00;5110061;28;20237;-76
2024/04/07 10:43:44;;;;;;;1.40;1.30;;;;;;;20.40;35.37;96788.31;5112080;28;20253;-76
2024/04/07 10:46:10;;;;;;;2.30;1.17;;;;;;;20.18;36.08;96808.59;5103977;28;20184;-76
2024/04/07 10:48:38;;;;;;;1.97;1.60;;;;;;;19.97;36.54;96789.03;5103096;28;20256;-76
2024/04/07 10:51:06;;;;;;;1.70;1.43;;;;;;;20.26;37.42;96801.47;5105550;28;20200;-76
2024/04/07 10:53:33;;;;;;;1.90;1.40;;;;;;;20.25;37.06;96802.56;5092218;28;20685;-76
2024/04/07 10:56:00;;;;;;;2.47;2.03;;;;;;;20.07;36.65;96820.22;5100973;28;20681;-76
2024/04/07 10:58:27;;;;;;;2.67;1.30;;;;;;;19.54;36.35;96833.63;5091271;28;20243;-76
2024/04/07 11:00:53;;;;;;;2.80;1.37;;;;;;;18.45;44.25;96853.81;5102352;28;20226;-76
2024/04/07 11:03:21;;;;;;;5.13;1.93;;;;;;;18.07;47.82;96860.91;5092641;28;20581;-77
2024/04/07 11:05:49;;;;;;;1.27;1.17;;;;;;;17.35;50.76;96868.09;5091256;28;20212;-78
2024/04/07 11:08:16;;;;;;;1.57;1.47;;;;;;;17.07;54.21;96840.00;5108243;28;20202;-77
2024/04/07 11:10:41;;;;;;;3.47;2.90;;;;;;;16.85;56.95;96839.13;5103216;28;20199;-77
2024/04/07 11:13:09;;;;;;;8.20;4.03;;;;;;;16.69;55.68;96827.28;5110886;28;20203;-78
2024/04/07 11:15:35;;;;;;;1.57;1.33;;;;;;;17.00;57.46;96823.59;5091012;28;20216;-78
2024/04/07 11:18:13;;;;;;;2.67;1.47;;;;;;;17.58;59.10;96816.72;5100136;28;20196;-78
2024/04/07 11:20:40;;;;;;;2.50;1.50;;;;;;;18.41;56.91;96807.88;5102936;28;20192;-77
2024/04/07 11:23:09;;;;;;;1.40;1.30;;;;;;;18.57;51.65;96806.13;5091626;28;20187;-77
2024/04/07 11:25:35;;;;;;;2.87;1.33;;;;;;;18.37;54.82;96806.19;5091969;28;20200;-77
2024/04/07 11:28:02;;;;;;;3.43;1.73;;;;;;;19.06;51.42;96806.28;5106646;28;20658;-77
2024/04/07 11:30:32;;;;;;;3.13;1.50;;;;;;;19.61;52.43;96798.75;5091208;28;20200;-76
2024/04/07 11:33:04;;;;;;;1.47;1.37;;;;;;;19.45;52.88;96800.56;5091524;28;20275;-77
2024/04/07 11:35:30;;;;;;;1.43;1.20;;;;;;;19.75;45.73;96804.63;5090893;28;20220;-76
2024/04/07 11:37:57;;;;;;;2.90;1.10;;;;;;;19.73;45.88;96793.38;5100051;28;20677;-77